createdAt,value
2022-12-31T00:00:49.719Z,3.03
2022-12-31T00:03:18.937Z,5.65
2022-12-31T00:05:46.801Z,6.18
2022-12-31T00:08:14.583Z,4.97
2022-12-31T00:10:42.445Z,4.63
2022-12-31T00:13:10.912Z,3.72
2022-12-31T00:15:38.999Z,3.55
2022-12-31T00:18:07.009Z,4.13
2022-12-31T00:20:39.982Z,5.78
2022-12-31T00:23:09.594Z,4.72
2022-12-31T00:25:37.499Z,4.30
2022-12-31T00:28:06.195Z,2.30
2022-12-31T00:30:34.932Z,2.83
2022-12-31T00:33:02.694Z,4.15
2022-12-31T00:35:30.868Z,3.03
2022-12-31T00:37:59.948Z,2.10
2022-12-31T00:40:29.719Z,3.65
2022-12-31T00:42:57.521Z,1.83
2022-12-31T00:45:25.416Z,3.95
2022-12-31T00:47:53.161Z,2.00
2022-12-31T00:50:21.110Z,2.50
2022-12-31T00:52:48.826Z,1.63
2022-12-31T00:55:18.144Z,1.85
2022-12-31T00:57:45.872Z,1.45
2022-12-31T01:00:15.018Z,1.42
2022-12-31T01:02:42.863Z,1.38
2022-12-31T01:05:10.858Z,1.65
2022-12-31T01:07:38.865Z,2.00
2022-12-31T01:10:07.847Z,1.20
2022-12-31T01:12:36.885Z,2.58
2022-12-31T01:15:05.285Z,5.13
2022-12-31T01:17:33.041Z,5.85
2022-12-31T01:20:00.711Z,1.83
2022-12-31T01:22:28.477Z,2.53
2022-12-31T01:24:56.271Z,1.85
2022-12-31T01:27:24.004Z,3.42
2022-12-31T01:29:53.128Z,6.63
2022-12-31T01:32:20.861Z,2.55
2022-12-31T01:34:48.717Z,4.15
2022-12-31T01:37:16.413Z,2.90
2022-12-31T01:39:44.119Z,5.03
2022-12-31T01:42:12.581Z,3.90
2022-12-31T01:44:51.279Z,2.58
2022-12-31T01:47:26.837Z,2.75
2022-12-31T01:49:59.197Z,3.72
2022-12-31T01:52:29.978Z,2.67
2022-12-31T01:55:00.970Z,2.55
2022-12-31T01:57:28.820Z,6.30
2022-12-31T01:59:57.779Z,5.63
2022-12-31T02:02:27.163Z,6.32
2022-12-31T02:04:57.068Z,4.35
2022-12-31T02:07:25.427Z,4.63
2022-12-31T02:09:54.940Z,5.25
2022-12-31T02:12:23.000Z,6.20
2022-12-31T02:14:53.383Z,6.90
2022-12-31T02:17:28.559Z,4.18
2022-12-31T02:20:26.827Z,3.97
2022-12-31T02:23:25.301Z,4.30
2022-12-31T02:26:18.029Z,10.05
2022-12-31T02:29:02.016Z,5.90
2022-12-31T02:31:34.575Z,3.53
2022-12-31T02:34:05.639Z,6.22
2022-12-31T02:36:35.987Z,5.57
2022-12-31T02:39:05.056Z,5.05
2022-12-31T02:41:50.948Z,4.57
2022-12-31T02:44:23.441Z,3.72
2022-12-31T02:47:00.904Z,2.40
2022-12-31T02:49:32.904Z,5.15
2022-12-31T02:52:05.684Z,3.88
2022-12-31T02:54:35.311Z,4.60
2022-12-31T02:57:07.915Z,3.10
2022-12-31T02:59:58.422Z,1.92
2022-12-31T03:02:29.580Z,4.43
2022-12-31T03:04:58.193Z,4.30
2022-12-31T03:07:27.889Z,5.72
2022-12-31T03:09:56.305Z,3.88
2022-12-31T03:12:44.823Z,3.05
2022-12-31T03:15:20.914Z,4.07
2022-12-31T03:17:56.298Z,3.70
2022-12-31T03:20:43.877Z,2.55
2022-12-31T03:23:16.121Z,2.00
2022-12-31T03:25:43.695Z,5.20
2022-12-31T03:28:14.289Z,3.60
2022-12-31T03:30:43.864Z,1.95
2022-12-31T03:33:13.288Z,5.47
2022-12-31T03:35:42.415Z,5.65
2022-12-31T03:38:10.298Z,5.20
2022-12-31T03:40:40.345Z,5.78
2022-12-31T03:43:08.290Z,6.13
2022-12-31T03:45:36.284Z,4.10
2022-12-31T03:48:04.946Z,3.83
2022-12-31T03:50:34.140Z,3.20
2022-12-31T03:53:02.095Z,6.68
2022-12-31T03:55:29.813Z,5.28
2022-12-31T03:57:57.702Z,3.45
2022-12-31T04:00:25.630Z,4.85
2022-12-31T04:02:53.661Z,2.72
2022-12-31T04:05:21.948Z,4.68
2022-12-31T04:07:52.105Z,6.57
2022-12-31T04:10:21.110Z,7.47
2022-12-31T04:12:48.885Z,6.10
2022-12-31T04:15:18.759Z,6.90
2022-12-31T04:17:46.942Z,8.55
2022-12-31T04:20:15.077Z,6.82
2022-12-31T04:22:44.006Z,10.00
2022-12-31T04:25:13.733Z,5.72
2022-12-31T04:27:43.705Z,7.00
2022-12-31T04:30:13.177Z,9.95
2022-12-31T04:32:41.644Z,5.75
2022-12-31T04:35:10.394Z,6.55
2022-12-31T04:37:38.319Z,6.45
2022-12-31T04:40:07.177Z,4.90
2022-12-31T04:42:36.980Z,5.97
2022-12-31T04:45:05.553Z,5.05
2022-12-31T04:47:33.454Z,5.43
2022-12-31T04:50:01.193Z,8.38
2022-12-31T04:52:28.963Z,9.57
2022-12-31T04:54:56.626Z,9.88
2022-12-31T04:57:24.428Z,8.50
2022-12-31T04:59:53.795Z,8.90
2022-12-31T05:02:21.782Z,10.35
2022-12-31T05:04:49.741Z,9.75
2022-12-31T05:07:18.747Z,9.30
2022-12-31T05:09:46.668Z,7.90
2022-12-31T05:12:14.326Z,7.38
2022-12-31T05:14:42.159Z,8.10
2022-12-31T05:17:11.254Z,7.68
2022-12-31T05:19:39.514Z,8.80
2022-12-31T05:22:24.625Z,10.20
2022-12-31T05:24:52.445Z,6.65
2022-12-31T05:27:20.115Z,5.93
2022-12-31T05:29:48.060Z,6.50
2022-12-31T05:32:17.458Z,6.22
2022-12-31T05:34:45.431Z,5.93
2022-12-31T05:37:13.092Z,4.90
2022-12-31T05:39:40.845Z,4.43
2022-12-31T05:42:08.532Z,5.50
2022-12-31T05:44:36.450Z,4.75
2022-12-31T05:47:04.163Z,4.53
2022-12-31T05:49:33.212Z,5.03
2022-12-31T05:52:01.162Z,5.50
2022-12-31T05:54:29.005Z,4.60
2022-12-31T05:56:56.965Z,4.68
2022-12-31T05:59:24.678Z,4.18
2022-12-31T06:01:52.469Z,4.88
2022-12-31T06:04:20.177Z,4.90
2022-12-31T06:06:49.597Z,5.45
2022-12-31T06:09:17.617Z,4.13
2022-12-31T06:11:45.481Z,4.63
2022-12-31T06:14:13.552Z,5.25
2022-12-31T06:16:41.936Z,4.72
2022-12-31T06:19:09.806Z,3.88
2022-12-31T06:21:37.743Z,4.35
2022-12-31T06:24:07.654Z,4.78
2022-12-31T06:26:35.526Z,4.88
2022-12-31T06:29:03.301Z,4.90
2022-12-31T06:31:31.071Z,5.28
2022-12-31T06:33:59.078Z,5.05
2022-12-31T06:36:27.380Z,4.70
2022-12-31T06:38:55.332Z,7.65
2022-12-31T06:41:24.543Z,6.43
2022-12-31T06:43:52.327Z,7.43
2022-12-31T06:46:20.227Z,7.90
2022-12-31T06:48:48.070Z,8.30
2022-12-31T06:51:18.635Z,7.13
2022-12-31T06:53:47.166Z,6.78
2022-12-31T06:56:16.855Z,5.82
2022-12-31T06:58:47.095Z,6.65
2022-12-31T07:01:38.513Z,7.50
2022-12-31T07:04:23.032Z,7.90
2022-12-31T07:06:53.805Z,7.03
2022-12-31T07:09:27.588Z,7.38
2022-12-31T07:12:02.000Z,7.05
2022-12-31T07:14:36.552Z,7.43
2022-12-31T07:17:12.150Z,7.65
2022-12-31T07:19:53.890Z,5.50
2022-12-31T07:22:25.745Z,5.53
2022-12-31T07:24:54.239Z,6.65
2022-12-31T07:27:33.292Z,6.68
2022-12-31T07:30:06.907Z,5.70
2022-12-31T07:32:49.056Z,5.80
2022-12-31T07:35:23.182Z,3.35
2022-12-31T07:37:59.547Z,3.33
2022-12-31T07:40:33.460Z,2.58
2022-12-31T07:43:07.322Z,2.40
2022-12-31T07:45:42.195Z,4.60
2022-12-31T07:48:20.164Z,3.38
2022-12-31T07:50:48.572Z,2.90
2022-12-31T07:53:16.823Z,4.00
2022-12-31T07:55:44.610Z,5.43
2022-12-31T07:58:20.101Z,7.57
2022-12-31T08:00:49.852Z,9.60
2022-12-31T08:03:26.724Z,7.75
2022-12-31T08:06:02.143Z,6.35
2022-12-31T08:08:34.804Z,7.88
2022-12-31T08:11:12.964Z,6.03
2022-12-31T08:13:41.940Z,4.00
2022-12-31T08:16:13.104Z,3.10
2022-12-31T08:18:41.387Z,3.55
2022-12-31T08:21:17.726Z,4.82
2022-12-31T08:23:50.791Z,2.72
2022-12-31T08:26:26.639Z,3.90
2022-12-31T08:28:58.997Z,2.03
2022-12-31T08:31:31.779Z,4.43
2022-12-31T08:34:06.381Z,1.15
2022-12-31T08:36:41.078Z,1.92
2022-12-31T08:39:14.790Z,2.00
2022-12-31T08:41:44.211Z,1.83
2022-12-31T08:44:16.884Z,2.80
2022-12-31T08:46:51.587Z,1.95
2022-12-31T08:49:20.001Z,2.35
2022-12-31T08:51:48.444Z,1.95
2022-12-31T08:54:16.626Z,1.25
2022-12-31T08:56:50.720Z,2.83
2022-12-31T08:59:30.468Z,1.83
2022-12-31T09:02:23.489Z,1.83
2022-12-31T09:05:00.046Z,2.20
2022-12-31T09:07:34.827Z,2.15
2022-12-31T09:10:06.757Z,2.15
2022-12-31T09:12:38.471Z,3.20
2022-12-31T09:15:12.453Z,2.97
2022-12-31T09:17:46.112Z,5.05
2022-12-31T09:20:22.340Z,3.00
2022-12-31T09:22:50.664Z,2.42
2022-12-31T09:25:21.440Z,3.22
2022-12-31T09:27:58.121Z,1.52
2022-12-31T09:30:27.676Z,1.33
2022-12-31T09:33:03.806Z,4.43
2022-12-31T09:35:36.732Z,6.07
2022-12-31T09:38:11.418Z,3.83
2022-12-31T09:40:52.204Z,3.80
2022-12-31T09:44:01.679Z,4.82
2022-12-31T09:47:08.657Z,1.60
2022-12-31T09:50:01.348Z,4.57
2022-12-31T09:52:36.353Z,3.83
2022-12-31T09:55:23.070Z,4.32
2022-12-31T09:57:59.552Z,4.65
2022-12-31T10:00:32.510Z,5.85
2022-12-31T10:03:15.371Z,2.53
2022-12-31T10:06:09.577Z,7.30
2022-12-31T10:08:49.303Z,2.80
2022-12-31T10:11:21.994Z,8.95
2022-12-31T10:13:59.640Z,4.90
2022-12-31T10:17:13.788Z,9.57
2022-12-31T10:19:52.282Z,6.47
2022-12-31T10:22:43.800Z,5.63
2022-12-31T10:25:39.228Z,5.13
2022-12-31T10:28:16.677Z,6.65
2022-12-31T10:30:50.021Z,5.60
2022-12-31T10:33:19.238Z,6.07
2022-12-31T10:35:52.076Z,6.57
2022-12-31T10:38:28.191Z,5.15
2022-12-31T10:41:22.240Z,5.60
2022-12-31T10:44:24.067Z,4.47
2022-12-31T10:47:12.714Z,4.07
2022-12-31T10:50:08.730Z,4.25
2022-12-31T10:53:05.794Z,9.20
2022-12-31T10:55:54.472Z,11.73
2022-12-31T10:58:59.959Z,7.25
2022-12-31T11:01:35.184Z,4.72
2022-12-31T11:04:34.398Z,8.30
2022-12-31T11:07:18.715Z,7.57
2022-12-31T11:10:04.175Z,7.45
2022-12-31T11:13:01.105Z,10.85
2022-12-31T11:15:40.133Z,10.40
2022-12-31T11:18:18.659Z,7.70
2022-12-31T11:20:58.372Z,6.85
2022-12-31T11:23:35.348Z,7.43
2022-12-31T11:26:14.301Z,7.72
2022-12-31T11:29:12.152Z,14.57
2022-12-31T11:32:00.735Z,6.25
2022-12-31T11:34:49.869Z,8.80
2022-12-31T11:37:33.385Z,8.55
2022-12-31T11:40:13.723Z,8.35
2022-12-31T11:42:45.712Z,8.95
2022-12-31T11:45:22.727Z,10.45
2022-12-31T11:50:56.348Z,9.77
2022-12-31T11:53:38.136Z,5.32
2022-12-31T11:56:12.926Z,4.68
2022-12-31T11:58:43.673Z,6.18
2022-12-31T12:01:15.570Z,7.40
2022-12-31T12:03:43.878Z,7.75
2022-12-31T12:06:13.348Z,7.50
2022-12-31T12:08:41.853Z,8.98
2022-12-31T12:11:18.826Z,4.82
2022-12-31T12:13:46.643Z,7.85
2022-12-31T12:16:16.058Z,9.55
2022-12-31T12:18:47.241Z,7.72
2022-12-31T12:21:16.688Z,10.50
2022-12-31T12:23:56.411Z,7.78
2022-12-31T12:26:34.139Z,8.23
2022-12-31T12:29:10.381Z,7.25
2022-12-31T12:31:39.966Z,5.60
2022-12-31T12:34:23.307Z,5.35
2022-12-31T12:36:51.368Z,8.93
2022-12-31T12:39:22.366Z,5.90
2022-12-31T12:42:01.648Z,7.65
2022-12-31T12:44:29.464Z,11.30
2022-12-31T12:46:58.712Z,8.73
2022-12-31T12:49:28.977Z,11.40
2022-12-31T12:52:18.858Z,7.55
2022-12-31T12:54:59.266Z,12.98
2022-12-31T12:57:30.728Z,7.63
2022-12-31T13:00:10.805Z,9.85
2022-12-31T13:03:03.175Z,13.55
2022-12-31T13:05:40.953Z,12.90
2022-12-31T13:08:18.019Z,15.23
2022-12-31T13:11:04.733Z,10.10
2022-12-31T13:13:42.164Z,10.68
2022-12-31T13:16:17.563Z,8.63
2022-12-31T13:18:56.122Z,7.32
2022-12-31T13:21:38.880Z,11.52
2022-12-31T13:24:14.167Z,6.65
2022-12-31T13:26:45.824Z,5.32
2022-12-31T13:29:17.394Z,11.70
2022-12-31T13:31:46.365Z,6.82
2022-12-31T13:34:18.341Z,8.85
2022-12-31T13:36:48.057Z,8.10
2022-12-31T13:39:17.909Z,9.38
2022-12-31T13:41:50.648Z,7.78
2022-12-31T13:44:26.179Z,9.60
2022-12-31T13:46:58.065Z,10.15
2022-12-31T13:49:32.953Z,6.78
2022-12-31T13:52:06.389Z,12.70
2022-12-31T13:54:38.112Z,7.97
2022-12-31T13:57:10.076Z,11.88
2022-12-31T13:59:39.609Z,9.07
2022-12-31T14:02:17.937Z,10.25
2022-12-31T14:04:50.395Z,10.55
2022-12-31T14:07:20.846Z,24.42
2022-12-31T14:09:48.537Z,153.15
2022-12-31T14:12:28.814Z,90.43
2022-12-31T14:15:04.839Z,35.72
2022-12-31T14:17:39.123Z,20.35
2022-12-31T14:20:15.391Z,41.80
2022-12-31T14:22:48.663Z,20.92
2022-12-31T14:25:21.262Z,105.07
2022-12-31T14:27:49.998Z,24.25
2022-12-31T14:30:19.354Z,16.63
2022-12-31T14:33:06.673Z,9.43
2022-12-31T14:35:51.589Z,11.77
2022-12-31T14:38:26.073Z,8.13
2022-12-31T14:41:01.977Z,9.98
2022-12-31T14:43:36.439Z,5.90
2022-12-31T14:46:11.056Z,8.77
2022-12-31T14:48:49.642Z,8.23
2022-12-31T14:51:19.131Z,10.88
2022-12-31T14:53:53.886Z,10.60
2022-12-31T14:56:33.871Z,11.18
2022-12-31T14:59:03.071Z,12.93
2022-12-31T15:01:31.067Z,10.65
2022-12-31T15:03:59.156Z,11.40
2022-12-31T15:06:55.998Z,14.50
2022-12-31T15:10:05.297Z,9.98
2022-12-31T15:12:57.896Z,11.23
2022-12-31T15:15:53.038Z,15.70
2022-12-31T15:18:32.647Z,22.17
2022-12-31T15:21:30.360Z,24.45
2022-12-31T15:23:59.729Z,53.20
2022-12-31T15:26:30.937Z,15.90
2022-12-31T15:29:01.635Z,18.30
2022-12-31T15:31:30.002Z,16.00
2022-12-31T15:33:59.809Z,16.25
2022-12-31T15:36:29.394Z,17.73
2022-12-31T15:39:20.634Z,10.30
2022-12-31T15:42:35.822Z,18.33
2022-12-31T15:44:46.462Z,10.90
2022-12-31T15:47:18.804Z,15.18
2022-12-31T15:49:47.764Z,11.90
2022-12-31T15:52:18.231Z,15.85
2022-12-31T15:54:49.260Z,15.38
2022-12-31T15:57:19.636Z,18.63
2022-12-31T15:59:47.603Z,11.73
2022-12-31T16:02:21.189Z,16.13
2022-12-31T16:04:50.218Z,23.33
2022-12-31T16:07:18.479Z,20.27
2022-12-31T16:09:52.121Z,13.80
2022-12-31T16:12:23.091Z,19.83
2022-12-31T16:14:54.531Z,20.20
2022-12-31T16:17:27.851Z,21.27
2022-12-31T16:19:56.196Z,16.20
2022-12-31T16:22:27.446Z,13.30
2022-12-31T16:27:45.695Z,17.30
2022-12-31T16:30:21.488Z,19.27
2022-12-31T16:32:50.915Z,18.98
2022-12-31T16:35:23.959Z,25.05
2022-12-31T16:38:02.316Z,55.78
2022-12-31T16:40:31.879Z,25.48
2022-12-31T16:42:59.634Z,20.65
2022-12-31T16:45:32.638Z,51.33
2022-12-31T16:48:11.117Z,56.75
2022-12-31T16:50:44.808Z,18.45
2022-12-31T16:53:17.642Z,17.10
2022-12-31T16:55:52.505Z,18.23
2022-12-31T16:58:22.592Z,15.65
2022-12-31T17:00:51.777Z,12.68
2022-12-31T17:03:20.946Z,12.57
2022-12-31T17:05:58.743Z,9.82
2022-12-31T17:08:28.700Z,16.42
2022-12-31T17:10:57.814Z,14.60
2022-12-31T17:13:30.261Z,17.90
2022-12-31T17:15:59.357Z,19.98
2022-12-31T17:18:31.851Z,18.45
2022-12-31T17:21:07.829Z,12.98
2022-12-31T17:23:37.839Z,18.05
2022-12-31T17:26:10.464Z,24.00
2022-12-31T17:28:43.087Z,28.67
2022-12-31T17:31:28.640Z,19.48
2022-12-31T17:34:07.600Z,38.50
2022-12-31T17:36:35.326Z,102.28
2022-12-31T17:39:16.116Z,22.80
2022-12-31T17:41:47.052Z,22.30
2022-12-31T17:44:18.710Z,33.65
2022-12-31T17:46:46.895Z,49.13
2022-12-31T17:49:15.146Z,22.38
2022-12-31T17:51:47.503Z,25.08
2022-12-31T17:54:16.234Z,20.80
2022-12-31T17:56:45.891Z,31.58
2022-12-31T17:59:16.911Z,21.38
2022-12-31T18:01:44.977Z,19.10
2022-12-31T18:04:14.492Z,45.03
2022-12-31T18:06:42.938Z,16.00
2022-12-31T18:09:11.180Z,14.57
2022-12-31T18:11:39.830Z,16.52
2022-12-31T18:14:09.035Z,20.52
2022-12-31T18:16:36.787Z,19.85
2022-12-31T18:19:04.525Z,17.38
2022-12-31T18:21:34.455Z,22.30
2022-12-31T18:26:32.726Z,29.42
2022-12-31T18:29:02.770Z,19.45
2022-12-31T18:31:32.133Z,14.07
2022-12-31T18:34:00.431Z,22.67
2022-12-31T18:36:29.113Z,15.88
2022-12-31T18:38:56.901Z,15.15
2022-12-31T18:41:27.815Z,16.23
2022-12-31T18:43:56.101Z,15.55
2022-12-31T18:46:25.448Z,14.57
2022-12-31T18:48:54.560Z,12.95
2022-12-31T18:51:31.455Z,16.42
2022-12-31T18:54:00.092Z,16.15
2022-12-31T18:56:28.032Z,19.17
2022-12-31T18:58:55.915Z,19.50
2022-12-31T19:01:27.973Z,14.25
2022-12-31T19:03:58.583Z,14.90
2022-12-31T19:06:26.713Z,15.23
2022-12-31T19:08:54.494Z,19.13
2022-12-31T19:11:23.032Z,22.77
2022-12-31T19:13:51.057Z,23.23
2022-12-31T19:16:19.166Z,27.10
2022-12-31T19:18:47.478Z,17.58
2022-12-31T19:21:18.516Z,15.00
2022-12-31T19:23:46.817Z,15.88
2022-12-31T19:26:19.865Z,14.65
2022-12-31T19:28:48.485Z,16.20
2022-12-31T19:31:16.306Z,16.13
2022-12-31T19:33:44.504Z,21.42
2022-12-31T19:36:17.199Z,19.27
2022-12-31T19:38:45.362Z,16.17
2022-12-31T19:41:17.733Z,17.10
2022-12-31T19:43:45.519Z,14.30
2022-12-31T19:46:14.580Z,18.33
2022-12-31T19:48:42.547Z,20.33
2022-12-31T19:51:11.414Z,14.07
2022-12-31T19:53:40.614Z,19.88
2022-12-31T19:56:12.483Z,18.58
2022-12-31T19:58:40.305Z,20.88
2022-12-31T20:01:09.369Z,19.45
2022-12-31T20:03:37.326Z,21.08
2022-12-31T20:06:07.895Z,16.02
2022-12-31T20:08:36.355Z,17.25
2022-12-31T20:11:12.858Z,17.05
2022-12-31T20:13:41.633Z,24.02
2022-12-31T20:16:10.119Z,18.80
2022-12-31T20:18:38.814Z,16.83
2022-12-31T20:21:10.388Z,24.15
2022-12-31T20:23:38.107Z,22.95
2022-12-31T20:26:06.067Z,25.23
2022-12-31T20:28:36.517Z,18.67
2022-12-31T20:31:06.788Z,16.80
2022-12-31T20:33:34.869Z,14.52
2022-12-31T20:36:02.803Z,25.70
2022-12-31T20:38:30.606Z,17.80
2022-12-31T20:41:04.159Z,15.63
2022-12-31T20:43:32.486Z,22.02
2022-12-31T20:46:10.963Z,18.73
2022-12-31T20:48:42.619Z,17.40
2022-12-31T20:51:10.317Z,16.33
2022-12-31T20:53:38.054Z,16.70
2022-12-31T20:56:06.272Z,18.83
2022-12-31T20:58:34.397Z,23.42
2022-12-31T21:01:06.597Z,17.33
2022-12-31T21:06:24.064Z,20.27
2022-12-31T21:08:52.361Z,15.75
2022-12-31T21:11:37.900Z,19.38
2022-12-31T21:14:06.120Z,19.58
2022-12-31T21:16:35.438Z,15.55
2022-12-31T21:19:03.520Z,23.67
2022-12-31T21:21:31.279Z,20.33
2022-12-31T21:23:59.113Z,22.00
2022-12-31T21:26:26.827Z,20.42
2022-12-31T21:28:54.713Z,22.33
2022-12-31T21:31:22.559Z,21.85
2022-12-31T21:33:51.726Z,19.33
2022-12-31T21:36:19.526Z,25.52
2022-12-31T21:38:47.384Z,21.58
2022-12-31T21:41:33.238Z,25.38
2022-12-31T21:44:02.106Z,20.17
2022-12-31T21:46:30.277Z,19.17
2022-12-31T21:49:00.479Z,17.65
2022-12-31T21:51:29.429Z,29.40
2022-12-31T21:53:57.638Z,73.35
2022-12-31T21:56:24.414Z,22.88
2022-12-31T21:59:09.000Z,24.52
2022-12-31T22:05:00.312Z,18.02
2022-12-31T22:07:11.236Z,25.85
2022-12-31T22:09:38.877Z,17.92
2022-12-31T22:12:07.277Z,18.42
2022-12-31T22:14:35.002Z,17.08
2022-12-31T22:17:02.701Z,18.95
2022-12-31T22:19:33.646Z,15.75
2022-12-31T22:22:11.519Z,15.95
2022-12-31T22:24:39.319Z,19.52
2022-12-31T22:27:29.385Z,21.92
2022-12-31T22:29:54.746Z,21.00
2022-12-31T22:32:22.391Z,16.48
2022-12-31T22:34:51.562Z,12.00
2022-12-31T22:37:46.515Z,22.65
2022-12-31T22:40:07.774Z,24.00
2022-12-31T22:42:35.474Z,20.98
2022-12-31T22:45:03.419Z,20.48
2022-12-31T22:47:31.152Z,32.38
2022-12-31T22:50:00.479Z,21.80
2022-12-31T22:52:28.179Z,27.50
2022-12-31T22:54:55.895Z,16.55
2022-12-31T22:57:23.616Z,17.75
2022-12-31T22:59:51.361Z,24.63
2022-12-31T23:02:19.119Z,17.98
2022-12-31T23:04:47.177Z,24.42
2022-12-31T23:07:16.417Z,26.55
2022-12-31T23:10:01.560Z,29.23
2022-12-31T23:12:29.681Z,75.80
2022-12-31T23:15:15.096Z,51.83
2022-12-31T23:18:00.336Z,48.22
2022-12-31T23:20:45.883Z,49.22
2022-12-31T23:23:16.100Z,101.35
2022-12-31T23:25:46.227Z,48.10
2022-12-31T23:28:15.565Z,74.85
2022-12-31T23:30:43.885Z,52.85
2022-12-31T23:33:15.352Z,44.97
2022-12-31T23:35:43.359Z,73.47
2022-12-31T23:38:11.445Z,32.08
2022-12-31T23:40:40.610Z,32.05
2022-12-31T23:43:09.891Z,43.47
2022-12-31T23:45:37.707Z,34.28
2022-12-31T23:48:06.034Z,33.33
2022-12-31T23:50:33.934Z,36.92
2022-12-31T23:53:01.667Z,30.23
2022-12-31T23:55:29.547Z,39.03
2022-12-31T23:57:58.763Z,49.83
